createdAt,value
2019-02-22T00:02:09.535Z,8.10
2019-02-22T00:04:38.599Z,7.90
2019-02-22T00:07:27.773Z,8.10
2019-02-22T00:10:10.490Z,8.20
2019-02-22T00:12:51.557Z,8.00
2019-02-22T00:15:20.881Z,8.30
2019-02-22T00:18:09.187Z,8.40
2019-02-22T00:20:57.555Z,8.40
2019-02-22T00:29:04.132Z,8.50
2019-02-22T00:31:52.425Z,8.40
2019-02-22T00:34:33.262Z,8.60
2019-02-22T00:37:13.976Z,8.40
2019-02-22T00:39:58.218Z,8.40
2019-02-22T00:42:39.512Z,8.20
2019-02-22T00:45:20.585Z,8.40
2019-02-22T00:48:01.179Z,8.40
2019-02-22T00:50:41.946Z,8.40
2019-02-22T00:53:22.510Z,8.50
2019-02-22T00:56:03.564Z,8.40
2019-02-22T00:58:44.866Z,8.50
2019-02-22T01:01:25.716Z,8.50
2019-02-22T01:04:07.062Z,8.40
2019-02-22T01:06:47.478Z,8.40
2019-02-22T01:09:28.480Z,8.50
2019-02-22T01:12:09.671Z,8.60
2019-02-22T01:14:50.167Z,8.70
2019-02-22T01:17:30.784Z,8.60
2019-02-22T01:20:11.429Z,8.60
2019-02-22T01:22:52.273Z,8.60
2019-02-22T01:25:32.817Z,8.70
2019-02-22T01:28:14.316Z,8.70
2019-02-22T01:30:55.769Z,8.60
2019-02-22T01:33:37.224Z,8.70
2019-02-22T01:36:17.908Z,8.80
2019-02-22T01:38:58.733Z,8.70
2019-02-22T01:41:40.079Z,8.60
2019-02-22T01:44:21.101Z,8.60
2019-02-22T01:47:02.417Z,8.70
2019-02-22T01:49:42.977Z,8.70
2019-02-22T01:52:23.606Z,8.60
2019-02-22T01:55:05.148Z,8.60
2019-02-22T01:57:45.781Z,8.60
2019-02-22T02:03:25.529Z,8.60
2019-02-22T02:05:54.677Z,8.60
2019-02-22T02:08:43.095Z,8.50
2019-02-22T02:11:31.482Z,8.60
2019-02-22T02:14:10.797Z,8.70
2019-02-22T02:16:59.385Z,8.70
2019-02-22T02:19:51.800Z,8.70
2019-02-22T02:22:33.367Z,8.70
2019-02-22T02:25:14.358Z,8.60
2019-02-22T02:27:54.735Z,8.70
2019-02-22T02:30:35.897Z,8.70
2019-02-22T02:33:16.809Z,8.60
2019-02-22T02:35:57.458Z,8.60
2019-02-22T02:38:38.441Z,8.70
2019-02-22T02:41:19.239Z,8.70
2019-02-22T02:44:00.088Z,8.70
2019-02-22T02:46:40.883Z,8.70
2019-02-22T02:49:22.317Z,8.70
2019-02-22T02:52:03.475Z,8.70
2019-02-22T02:54:45.031Z,8.60
2019-02-22T02:57:24.686Z,8.60
2019-02-22T03:00:12.944Z,8.60
2019-02-22T03:02:53.843Z,8.60
2019-02-22T03:05:58.818Z,8.50
2019-02-22T03:08:40.161Z,8.50
2019-02-22T03:11:22.347Z,8.50
2019-02-22T03:14:04.031Z,8.50
2019-02-22T03:16:48.917Z,8.20
2019-02-22T03:19:30.523Z,8.40
2019-02-22T03:22:11.203Z,8.30
2019-02-22T03:24:40.334Z,8.30
2019-02-22T03:27:28.664Z,8.30
2019-02-22T03:30:10.146Z,8.40
2019-02-22T03:32:50.890Z,8.50
2019-02-22T03:35:30.387Z,8.50
2019-02-22T03:38:18.626Z,8.50
2019-02-22T03:40:59.838Z,8.60
2019-02-22T03:43:41.247Z,8.60
2019-02-22T03:46:22.509Z,8.50
2019-02-22T03:49:03.706Z,8.60
2019-02-22T03:51:45.099Z,8.60
2019-02-22T03:54:25.756Z,8.90
2019-02-22T03:57:06.838Z,8.70
2019-02-22T03:59:50.939Z,8.70
2019-02-22T04:02:30.639Z,8.60
2019-02-22T04:05:11.386Z,8.70
2019-02-22T04:07:52.649Z,8.70
2019-02-22T04:10:33.364Z,8.50
2019-02-22T04:13:14.155Z,8.70
2019-02-22T04:15:55.281Z,8.80
2019-02-22T04:18:36.343Z,8.40
2019-02-22T04:21:17.173Z,8.50
2019-02-22T04:23:57.825Z,8.40
2019-02-22T04:26:38.782Z,8.40
2019-02-22T04:29:19.706Z,8.30
2019-02-22T04:32:00.537Z,8.30
2019-02-22T04:37:54.259Z,8.30
2019-02-22T04:40:23.397Z,8.20
2019-02-22T04:43:11.643Z,8.30
2019-02-22T04:45:40.560Z,8.30
2019-02-22T04:48:28.815Z,8.30
2019-02-22T04:51:10.008Z,8.20
2019-02-22T04:53:50.751Z,8.30
2019-02-22T04:56:31.747Z,8.30
2019-02-22T05:02:07.928Z,8.20
2019-02-22T05:04:48.749Z,8.10
2019-02-22T05:07:29.728Z,8.10
2019-02-22T05:10:11.122Z,8.30
2019-02-22T05:12:52.258Z,8.30
2019-02-22T05:15:33.325Z,8.30
2019-02-22T05:18:14.443Z,8.30
2019-02-22T05:20:55.497Z,8.20
2019-02-22T05:23:36.667Z,8.30
2019-02-22T05:26:18.167Z,8.30
2019-02-22T05:28:58.836Z,8.30
2019-02-22T05:31:40.669Z,8.20
2019-02-22T05:37:14.578Z,8.50
2019-02-22T05:39:55.498Z,8.30
2019-02-22T05:42:36.262Z,8.20
2019-02-22T05:45:15.752Z,8.20
2019-02-22T05:48:03.915Z,8.30
2019-02-22T05:50:44.452Z,8.20
2019-02-22T05:53:25.869Z,8.30
2019-02-22T05:56:06.406Z,8.30
2019-02-22T05:58:47.918Z,8.30
2019-02-22T06:01:28.570Z,8.20
2019-02-22T06:04:09.841Z,8.30
2019-02-22T06:06:51.615Z,8.10
2019-02-22T06:09:20.758Z,8.10
2019-02-22T06:12:09.085Z,8.00
2019-02-22T06:14:57.335Z,8.10
2019-02-22T06:17:38.699Z,8.00
2019-02-22T06:20:20.243Z,8.10
2019-02-22T06:26:06.119Z,8.20
2019-02-22T06:28:54.668Z,7.90
2019-02-22T06:34:48.432Z,8.10
2019-02-22T06:37:30.760Z,8.10
2019-02-22T06:40:11.809Z,8.30
2019-02-22T06:42:53.449Z,8.10
2019-02-22T06:45:34.688Z,8.10
2019-02-22T06:48:15.320Z,8.10
2019-02-22T06:50:55.937Z,8.20
2019-02-22T06:53:36.759Z,8.30
2019-02-22T06:56:17.331Z,8.20
2019-02-22T06:58:58.008Z,8.20
2019-02-22T07:01:39.440Z,8.30
2019-02-22T07:04:08.523Z,8.20
2019-02-22T07:06:56.774Z,8.30
2019-02-22T07:09:45.144Z,8.30
2019-02-22T07:12:36.801Z,8.30
2019-02-22T07:15:17.417Z,8.30
2019-02-22T07:17:46.598Z,8.30
2019-02-22T07:20:35.045Z,8.30
2019-02-22T07:23:15.662Z,8.30
2019-02-22T07:25:56.423Z,8.30
2019-02-22T07:28:37.733Z,8.40
2019-02-22T07:31:18.272Z,8.50
2019-02-22T07:33:59.868Z,8.40
2019-02-22T07:36:41.471Z,8.60
2019-02-22T07:39:28.010Z,8.60
2019-02-22T07:42:05.246Z,8.60
2019-02-22T07:44:46.053Z,8.60
2019-02-22T07:47:29.269Z,8.70
2019-02-22T07:49:58.384Z,8.50
2019-02-22T07:52:46.720Z,8.70
2019-02-22T07:55:35.200Z,8.80
2019-02-22T07:58:16.106Z,8.50
2019-02-22T08:00:57.507Z,8.60
2019-02-22T08:03:26.678Z,8.80
2019-02-22T08:06:15.055Z,8.80
2019-02-22T08:08:56.166Z,8.90
2019-02-22T08:11:37.492Z,9.00
2019-02-22T08:14:07.906Z,9.00
2019-02-22T08:19:25.812Z,9.00
2019-02-22T08:22:06.322Z,8.90
2019-02-22T08:24:47.423Z,8.90
2019-02-22T08:27:28.242Z,8.90
2019-02-22T08:30:09.598Z,8.90
2019-02-22T08:32:51.281Z,8.90
2019-02-22T08:35:31.952Z,8.80
2019-02-22T08:38:13.308Z,8.70
2019-02-22T08:40:42.534Z,8.70
2019-02-22T08:43:31.981Z,8.70
2019-02-22T08:46:14.175Z,8.70
2019-02-22T08:48:55.807Z,8.80
2019-02-22T08:51:36.523Z,8.90
2019-02-22T08:54:16.960Z,9.00
2019-02-22T08:56:58.726Z,9.20
2019-02-22T08:59:39.606Z,9.00
2019-02-22T09:02:08.824Z,9.10
2019-02-22T09:04:57.265Z,9.30
2019-02-22T09:07:38.252Z,9.20
2019-02-22T09:10:07.757Z,9.20
2019-02-22T09:12:36.951Z,9.30
2019-02-22T09:15:25.210Z,9.30
2019-02-22T09:18:13.539Z,9.40
2019-02-22T09:20:54.787Z,9.40
2019-02-22T09:23:35.349Z,9.60
2019-02-22T09:26:17.191Z,9.70
2019-02-22T09:28:58.134Z,9.60
2019-02-22T09:31:39.391Z,9.80
2019-02-22T09:34:20.690Z,9.70
2019-02-22T09:37:01.534Z,9.80
2019-02-22T09:39:31.571Z,9.80
2019-02-22T09:42:19.791Z,9.80
2019-02-22T09:45:08.534Z,9.70
2019-02-22T09:47:49.909Z,9.60
2019-02-22T09:50:30.730Z,9.60
2019-02-22T09:53:12.101Z,9.60
2019-02-22T09:55:52.735Z,9.70
2019-02-22T09:58:33.480Z,9.80
2019-02-22T10:01:14.356Z,9.90
2019-02-22T10:03:54.899Z,9.90
2019-02-22T10:06:35.949Z,9.90
2019-02-22T10:09:16.648Z,10.00
2019-02-22T10:11:57.965Z,10.10
2019-02-22T10:14:39.440Z,9.90
2019-02-22T10:17:08.559Z,9.80
2019-02-22T10:19:57.015Z,9.80
2019-02-22T10:22:45.239Z,9.70
2019-02-22T10:25:25.929Z,10.00
2019-02-22T10:28:16.915Z,10.20
2019-02-22T10:30:37.202Z,9.90
2019-02-22T10:33:35.964Z,9.90
2019-02-22T10:36:07.632Z,9.90
2019-02-22T10:38:48.224Z,10.10
2019-02-22T10:41:29.195Z,10.60
2019-02-22T10:44:17.374Z,10.40
2019-02-22T10:46:52.562Z,10.50
2019-02-22T10:49:33.107Z,10.60
2019-02-22T10:52:14.040Z,10.20
2019-02-22T10:54:59.214Z,10.00
2019-02-22T10:57:40.424Z,10.00
2019-02-22T11:00:29.508Z,10.00
2019-02-22T11:03:10.726Z,10.10
2019-02-22T11:05:51.495Z,9.90
2019-02-22T11:08:32.105Z,10.00
2019-02-22T11:11:12.845Z,10.20
2019-02-22T11:13:54.077Z,10.60
2019-02-22T11:16:35.491Z,11.00
2019-02-22T11:19:16.945Z,11.10
2019-02-22T11:21:58.144Z,11.30
2019-02-22T11:24:37.490Z,11.60
2019-02-22T11:27:06.597Z,11.40
2019-02-22T11:29:35.804Z,11.30
2019-02-22T11:32:24.165Z,11.00
2019-02-22T11:35:12.521Z,11.10
2019-02-22T11:38:00.689Z,11.40
2019-02-22T11:40:41.713Z,11.60
2019-02-22T11:43:22.599Z,11.50
2019-02-22T11:46:03.989Z,11.60
2019-02-22T11:48:45.055Z,11.40
2019-02-22T11:51:25.640Z,11.30
2019-02-22T11:53:54.790Z,11.30
2019-02-22T11:56:43.018Z,11.20
2019-02-22T11:59:31.157Z,11.20
2019-02-22T12:02:11.678Z,11.30
2019-02-22T12:04:52.778Z,11.10
2019-02-22T12:07:33.709Z,11.30
2019-02-22T12:10:14.491Z,11.60
2019-02-22T12:12:55.798Z,11.60
2019-02-22T12:15:36.561Z,11.80
2019-02-22T12:18:17.757Z,11.50
2019-02-22T12:20:58.578Z,11.60
2019-02-22T12:23:39.213Z,11.40
2019-02-22T12:26:20.753Z,11.40
2019-02-22T12:29:01.437Z,11.10
2019-02-22T12:31:30.542Z,11.30
2019-02-22T12:34:18.895Z,11.60
2019-02-22T12:37:07.268Z,11.50
2019-02-22T12:39:48.093Z,11.60
2019-02-22T12:42:29.148Z,11.80
2019-02-22T12:45:09.681Z,11.70
2019-02-22T12:47:50.379Z,11.50
2019-02-22T12:50:31.076Z,11.40
2019-02-22T12:53:11.705Z,11.50
2019-02-22T12:58:51.247Z,11.70
2019-02-22T13:01:32.842Z,11.70
2019-02-22T13:07:26.204Z,11.70
2019-02-22T13:10:07.034Z,11.50
2019-02-22T13:12:48.452Z,11.60
2019-02-22T13:15:17.639Z,11.50
2019-02-22T13:17:46.812Z,11.70
2019-02-22T13:20:35.126Z,11.70
2019-02-22T13:23:23.401Z,11.90
2019-02-22T13:26:04.087Z,11.80
2019-02-22T13:28:45.309Z,11.60
2019-02-22T13:31:30.216Z,11.50
2019-02-22T13:33:57.064Z,11.50
2019-02-22T13:36:45.380Z,11.20
2019-02-22T13:39:26.347Z,11.30
2019-02-22T13:42:07.116Z,11.10
2019-02-22T13:44:47.852Z,11.20
2019-02-22T13:47:28.419Z,11.20
2019-02-22T13:50:09.988Z,11.30
2019-02-22T13:52:51.007Z,11.20
2019-02-22T13:55:32.056Z,11.40
2019-02-22T13:58:13.322Z,12.00
2019-02-22T14:00:54.327Z,13.10
2019-02-22T14:03:36.492Z,13.30
2019-02-22T14:06:17.298Z,13.60
2019-02-22T14:08:58.740Z,13.50
2019-02-22T14:11:28.023Z,12.50
2019-02-22T14:14:16.451Z,11.80
2019-02-22T14:16:57.026Z,11.50
2019-02-22T14:19:38.478Z,11.50
2019-02-22T14:22:19.738Z,11.60
2019-02-22T14:24:48.880Z,11.50
2019-02-22T14:27:37.266Z,11.40
2019-02-22T14:30:25.518Z,11.30
2019-02-22T14:33:06.811Z,11.30
2019-02-22T14:35:47.408Z,11.20
2019-02-22T14:38:28.254Z,11.30
2019-02-22T14:41:09.684Z,11.30
2019-02-22T14:49:50.371Z,11.90
2019-02-22T14:52:31.164Z,12.60
2019-02-22T14:55:11.915Z,13.30
2019-02-22T14:57:41.047Z,13.30
2019-02-22T15:00:29.386Z,13.00
2019-02-22T15:03:17.799Z,12.30
2019-02-22T15:05:46.833Z,12.00
2019-02-22T15:08:35.187Z,11.80
2019-02-22T15:11:16.179Z,11.60
2019-02-22T15:13:57.203Z,11.50
2019-02-22T15:16:56.796Z,11.50
2019-02-22T15:19:37.624Z,11.30
2019-02-22T15:22:06.589Z,11.20
2019-02-22T15:24:54.829Z,11.40
2019-02-22T15:27:43.200Z,11.20
2019-02-22T15:30:24.755Z,11.20
2019-02-22T15:33:05.724Z,11.10
2019-02-22T15:35:34.974Z,11.10
2019-02-22T15:38:23.322Z,11.00
2019-02-22T15:43:54.910Z,10.80
2019-02-22T15:46:43.242Z,10.80
2019-02-22T15:49:12.329Z,10.70
2019-02-22T15:52:00.972Z,10.70
2019-02-22T15:54:49.400Z,10.70
2019-02-22T15:57:30.598Z,10.70
2019-02-22T16:00:11.334Z,10.50
2019-02-22T16:02:40.425Z,10.50
2019-02-22T16:08:26.138Z,10.60
2019-02-22T16:11:14.407Z,10.50
2019-02-22T16:13:55.257Z,10.50
2019-02-22T16:16:36.677Z,10.40
2019-02-22T16:19:18.030Z,10.30
2019-02-22T16:21:59.325Z,10.50
2019-02-22T16:24:28.405Z,10.30
2019-02-22T16:27:16.925Z,10.20
2019-02-22T16:29:45.934Z,10.10
2019-02-22T16:32:34.307Z,10.00
2019-02-22T16:35:22.704Z,10.00
2019-02-22T16:38:04.133Z,10.10
2019-02-22T16:40:44.778Z,9.90
2019-02-22T16:43:25.546Z,9.90
2019-02-22T16:46:06.752Z,10.00
2019-02-22T16:48:48.214Z,9.90
2019-02-22T16:51:29.339Z,9.90
2019-02-22T16:54:09.859Z,10.00
2019-02-22T16:56:53.184Z,9.80
2019-02-22T16:59:34.368Z,9.80
2019-02-22T17:02:14.965Z,9.70
2019-02-22T17:08:03.172Z,9.60
2019-02-22T17:10:42.531Z,9.50
2019-02-22T17:13:23.186Z,9.60
2019-02-22T17:16:03.988Z,9.20
2019-02-22T17:18:44.987Z,9.40
2019-02-22T17:21:14.320Z,9.20
2019-02-22T17:24:03.035Z,9.40
2019-02-22T17:26:51.240Z,9.50
2019-02-22T17:29:32.231Z,9.40
2019-02-22T17:32:01.380Z,9.40
2019-02-22T17:34:30.584Z,9.50
2019-02-22T17:37:18.992Z,9.40
2019-02-22T17:40:08.746Z,9.40
2019-02-22T17:42:57.078Z,9.30
2019-02-22T17:45:38.460Z,9.50
2019-02-22T17:48:07.790Z,9.20
2019-02-22T17:50:56.445Z,8.90
2019-02-22T17:53:37.581Z,9.00
2019-02-22T17:58:49.395Z,8.70
2019-02-22T18:04:38.907Z,9.30
2019-02-22T18:07:19.897Z,8.70
2019-02-22T18:09:49.059Z,8.90
2019-02-22T18:12:37.911Z,8.60
2019-02-22T18:15:26.330Z,8.60
2019-02-22T18:18:09.319Z,8.50
2019-02-22T18:20:53.810Z,8.50
2019-02-22T18:23:34.385Z,8.60
2019-02-22T18:26:15.719Z,8.30
2019-02-22T18:28:44.777Z,8.30
2019-02-22T18:31:33.029Z,8.20
2019-02-22T18:34:21.255Z,8.00
2019-02-22T18:37:03.012Z,8.00
2019-02-22T18:39:51.210Z,7.10
2019-02-22T18:42:31.791Z,7.90
2019-02-22T18:45:12.687Z,7.80
2019-02-22T18:53:38.607Z,7.60
2019-02-22T18:56:10.963Z,7.40
2019-02-22T18:58:59.639Z,7.40
2019-02-22T19:01:28.695Z,7.30
2019-02-22T19:04:16.889Z,7.30
2019-02-22T19:06:57.431Z,7.20
2019-02-22T19:09:41.609Z,7.00
2019-02-22T19:12:26.525Z,7.10
2019-02-22T19:14:55.628Z,7.00
2019-02-22T19:17:30.390Z,6.80
2019-02-22T19:23:02.695Z,6.80
2019-02-22T19:25:44.099Z,6.70
2019-02-22T19:28:25.568Z,6.70
2019-02-22T19:31:06.808Z,6.90
2019-02-22T19:33:49.896Z,6.60
2019-02-22T19:39:20.355Z,6.60
2019-02-22T19:44:49.025Z,6.50
2019-02-22T19:53:32.895Z,6.30
2019-02-22T19:56:14.386Z,6.00
2019-02-22T20:01:37.185Z,5.80
2019-02-22T20:07:04.796Z,5.70
2019-02-22T20:12:35.844Z,5.50
2019-02-22T20:15:17.430Z,5.40
2019-02-22T20:17:58.940Z,5.40
2019-02-22T20:20:42.088Z,5.30
2019-02-22T20:23:11.380Z,5.20
2019-02-22T20:26:00.236Z,5.20
2019-02-22T20:28:48.623Z,5.10
2019-02-22T20:31:37.080Z,5.20
2019-02-22T20:34:18.637Z,5.10
2019-02-22T20:37:02.083Z,5.10
2019-02-22T20:39:43.533Z,5.10
2019-02-22T20:42:12.719Z,5.00
2019-02-22T20:45:01.092Z,4.90
2019-02-22T20:47:42.201Z,4.50
2019-02-22T20:50:12.020Z,5.00
2019-02-22T20:53:00.357Z,5.00
2019-02-22T20:55:48.731Z,4.90
2019-02-22T20:58:29.911Z,4.90
2019-02-22T21:03:57.296Z,5.00
2019-02-22T21:06:47.461Z,4.90
2019-02-22T21:09:35.742Z,4.90
2019-02-22T21:12:17.143Z,4.90
2019-02-22T21:14:58.492Z,4.90
2019-02-22T21:17:56.247Z,4.60
2019-02-22T21:20:25.867Z,4.70
2019-02-22T21:22:55.057Z,4.60
2019-02-22T21:25:24.639Z,4.50
2019-02-22T21:27:53.855Z,4.40
2019-02-22T21:30:22.896Z,4.40
2019-02-22T21:32:52.097Z,4.50
2019-02-22T21:35:21.333Z,4.30
2019-02-22T21:37:50.601Z,4.40
2019-02-22T21:40:19.776Z,4.60
2019-02-22T21:42:50.121Z,4.70
2019-02-22T21:45:19.991Z,5.00
2019-02-22T21:47:54.634Z,5.10
2019-02-22T21:50:20.102Z,5.20
2019-02-22T21:52:49.212Z,5.30
2019-02-22T21:55:18.553Z,5.40
2019-02-22T21:57:49.680Z,5.30
2019-02-22T22:00:19.074Z,5.30
2019-02-22T22:02:48.270Z,5.30
2019-02-22T22:05:17.662Z,5.30
2019-02-22T22:07:46.777Z,5.20
2019-02-22T22:10:15.938Z,5.20
2019-02-22T22:12:45.169Z,5.10
2019-02-22T22:15:14.679Z,5.20
2019-02-22T22:17:43.871Z,5.10
2019-02-22T22:20:13.157Z,5.10
2019-02-22T22:22:42.470Z,5.10
2019-02-22T22:25:11.559Z,5.00
2019-02-22T22:27:40.730Z,5.00
2019-02-22T22:30:11.025Z,5.00
2019-02-22T22:32:40.449Z,5.10
2019-02-22T22:35:10.496Z,5.10
2019-02-22T22:37:39.557Z,5.10
2019-02-22T22:40:09.502Z,5.00
2019-02-22T22:42:38.771Z,5.00
2019-02-22T22:45:08.336Z,5.00
2019-02-22T22:47:37.463Z,4.90
2019-02-22T22:50:08.280Z,4.80
2019-02-22T22:52:37.647Z,4.80
2019-02-22T22:55:07.009Z,4.80
2019-02-22T22:57:36.124Z,4.90
2019-02-22T23:00:08.649Z,4.70
2019-02-22T23:02:37.726Z,4.70
2019-02-22T23:05:07.162Z,4.50
2019-02-22T23:07:36.165Z,4.50
2019-02-22T23:10:12.645Z,4.60
2019-02-22T23:12:44.147Z,4.70
2019-02-22T23:15:12.576Z,4.60
2019-02-22T23:17:41.724Z,4.50
2019-02-22T23:20:10.864Z,4.50
2019-02-22T23:22:39.981Z,4.40
2019-02-22T23:25:09.105Z,4.50
2019-02-22T23:27:39.145Z,4.50
2019-02-22T23:30:08.278Z,4.70
2019-02-22T23:32:37.472Z,4.50
2019-02-22T23:35:07.243Z,4.80
2019-02-22T23:37:36.384Z,5.00
2019-02-22T23:40:05.466Z,5.20
2019-02-22T23:42:34.579Z,5.00
2019-02-22T23:45:03.710Z,4.90
2019-02-22T23:47:32.838Z,5.00
2019-02-22T23:50:01.901Z,5.00
2019-02-22T23:52:31.080Z,5.00
2019-02-22T23:55:00.354Z,5.00
2019-02-22T23:57:32.095Z,5.00
